Time;durP1;ratioP1;P1;durP2;ratioP2;P2;SDS_P1;SDS_P2;PMS_P1;PMS_P2;Temp;Humidity;BMP_temperature;BMP_pressure;BME280_temperature;BME280_humidity;BME280_pressure;Samples;Min_cycle;Max_cycle;Signal;HPM_P1;HPM_P2
2022/02/07 00:02:03;;;;;;;0.00;0.00;;;5.80;81.40;;;;;;4973836;28;20030;-68
2022/02/07 00:04:34;;;;;;;0.10;0.10;;;5.80;81.40;;;;;;4976131;28;20031;-67
2022/02/07 00:07:00;;;;;;;1.38;0.10;;;5.80;81.80;;;;;;4974000;28;20038;-68
2022/02/07 00:09:26;;;;;;;0.20;0.00;;;5.80;81.70;;;;;;4976630;28;20137;-68
2022/02/07 00:11:51;;;;;;;0.20;0.00;;;5.80;82.10;;;;;;4977759;28;20713;-68
2022/02/07 00:14:17;;;;;;;0.43;0.00;;;5.80;81.80;;;;;;4977041;28;20035;-67
2022/02/07 00:16:44;;;;;;;1.33;0.00;;;5.80;82.10;;;;;;4973605;28;20042;-67
2022/02/07 00:19:16;;;;;;;0.13;0.03;;;5.80;81.70;;;;;;4976477;28;20053;-67
2022/02/07 00:21:42;;;;;;;0.85;0.00;;;5.80;81.50;;;;;;4974571;28;20515;-67
2022/02/07 00:24:07;;;;;;;0.15;0.10;;;5.80;81.60;;;;;;4973324;28;20033;-68
2022/02/07 00:26:33;;;;;;;0.17;0.10;;;5.80;82.70;;;;;;4975924;28;20026;-67
2022/02/07 00:28:59;;;;;;;1.90;0.17;;;5.80;82.50;;;;;;4975242;28;20582;-67
2022/02/07 00:31:24;;;;;;;0.10;0.08;;;5.80;82.90;;;;;;4973394;28;20045;-67
2022/02/07 00:33:53;;;;;;;0.20;0.10;;;5.90;83.00;;;;;;4974731;28;20039;-67
2022/02/07 00:36:19;;;;;;;0.20;0.10;;;5.80;83.00;;;;;;4974738;28;20040;-67
2022/02/07 00:38:51;;;;;;;0.05;0.05;;;5.80;82.60;;;;;;4972506;28;20047;-68
2022/02/07 00:41:23;;;;;;;0.20;0.20;;;5.70;81.40;;;;;;4973321;28;20038;-67
2022/02/07 00:43:54;;;;;;;0.17;0.00;;;5.60;79.90;;;;;;4974644;28;20704;-66
2022/02/07 00:46:30;;;;;;;0.60;0.10;;;5.40;79.00;;;;;;4973769;28;20038;-67
2022/02/07 00:48:56;;;;;;;0.15;0.08;;;5.20;78.80;;;;;;4974150;28;20068;-69
2022/02/07 00:51:24;;;;;;;0.10;0.10;;;5.00;79.00;;;;;;4976449;28;20058;-66
2022/02/07 00:53:50;;;;;;;0.38;0.15;;;4.80;79.50;;;;;;4973472;28;20488;-67
2022/02/07 00:56:15;;;;;;;0.55;0.00;;;4.60;79.90;;;;;;4974642;28;20066;-65
2022/02/07 00:58:41;;;;;;;0.00;0.00;;;4.40;80.20;;;;;;4973206;28;20460;-67
2022/02/07 01:01:07;;;;;;;0.00;0.00;;;4.30;80.90;;;;;;4973230;28;20041;-65
2022/02/07 01:03:32;;;;;;;0.10;0.00;;;4.20;81.20;;;;;;4972694;28;20030;-67
2022/02/07 01:05:58;;;;;;;0.08;0.00;;;4.10;81.70;;;;;;4975362;28;20069;-65
2022/02/07 01:08:48;;;;;;;0.00;0.00;;;3.90;82.40;;;;;;4972827;28;20506;-66
2022/02/07 01:11:31;;;;;;;0.00;0.00;;;3.90;82.80;;;;;;4973748;28;20117;-65
2022/02/07 01:16:53;;;;;;;0.00;0.00;;;3.70;83.00;;;;;;4973363;28;20035;-66
2022/02/07 01:56:49;;;;;;;0.10;0.00;;;3.20;85.20;;;;;;4981904;28;20035;-65
2022/02/07 01:59:15;;;;;;;0.00;0.00;;;3.20;85.40;;;;;;4978444;28;20043;-64
2022/02/07 02:01:40;;;;;;;0.10;0.00;;;3.20;85.60;;;;;;4981245;28;20066;-65
2022/02/07 02:04:07;;;;;;;0.00;0.00;;;3.10;85.70;;;;;;4990486;28;20054;-65
2022/02/07 02:06:35;;;;;;;0.08;0.00;;;3.10;86.00;;;;;;4976784;28;20023;-66
2022/02/07 02:09:03;;;;;;;0.00;0.00;;;3.10;86.00;;;;;;4978640;28;20038;-64
2022/02/07 02:11:28;;;;;;;0.73;0.00;;;3.10;86.00;;;;;;4979030;28;20063;-66
2022/02/07 02:19:52;;;;;;;0.55;0.00;;;3.10;85.90;;;;;;4923290;29;20102;-66
2022/02/07 02:46:50;;;;;;;0.10;0.00;;;3.30;84.10;;;;;;4971815;28;20300;-66
2022/02/07 02:49:15;;;;;;;1.90;0.20;;;3.40;84.00;;;;;;4977004;28;20073;-63
2022/02/07 02:51:41;;;;;;;1.08;0.22;;;3.40;83.80;;;;;;4975652;28;20122;-65
2022/02/07 02:54:07;;;;;;;0.30;0.20;;;3.40;83.60;;;;;;4976312;28;20397;-65
2022/02/07 02:56:33;;;;;;;1.02;0.20;;;3.40;83.50;;;;;;4977919;28;20042;-66
2022/02/07 02:58:59;;;;;;;1.20;0.10;;;3.50;83.50;;;;;;4975747;28;20101;-68
2022/02/07 03:01:25;;;;;;;0.63;0.10;;;3.50;83.80;;;;;;4975953;28;20673;-65
2022/02/07 03:03:50;;;;;;;1.00;0.10;;;3.50;83.70;;;;;;4975086;28;20030;-65
2022/02/07 03:06:17;;;;;;;0.73;0.10;;;3.50;83.90;;;;;;4976916;28;20093;-65
2022/02/07 03:08:42;;;;;;;0.90;0.43;;;3.50;84.00;;;;;;4976009;28;20066;-65
2022/02/07 03:11:20;;;;;;;1.70;0.15;;;3.50;83.90;;;;;;4975939;28;20038;-64
2022/02/07 03:13:58;;;;;;;0.60;0.20;;;3.50;84.00;;;;;;4976455;28;20500;-66
2022/02/07 03:16:37;;;;;;;1.05;0.47;;;3.50;84.00;;;;;;4977487;28;20082;-66
2022/02/07 03:19:04;;;;;;;0.52;0.10;;;3.50;84.00;;;;;;4975947;28;20469;-65
2022/02/07 03:21:30;;;;;;;0.70;0.10;;;3.50;84.00;;;;;;4976053;28;20170;-65
2022/02/07 03:23:56;;;;;;;1.27;0.20;;;3.50;84.00;;;;;;4975221;28;20038;-66
2022/02/07 03:26:21;;;;;;;0.30;0.10;;;3.50;84.00;;;;;;4977396;28;20240;-65
2022/02/07 03:28:48;;;;;;;3.33;0.10;;;3.50;84.00;;;;;;4977071;28;20520;-65
2022/02/07 03:31:18;;;;;;;1.55;0.15;;;3.50;84.00;;;;;;4973262;28;20050;-66
2022/02/07 03:33:44;;;;;;;1.00;0.10;;;3.50;84.20;;;;;;4976313;28;20035;-65
2022/02/07 03:36:14;;;;;;;0.55;0.10;;;3.50;84.00;;;;;;4976861;28;20532;-66
2022/02/07 03:38:40;;;;;;;0.50;0.20;;;3.60;84.50;;;;;;4973786;28;20042;-65
2022/02/07 03:41:06;;;;;;;0.50;0.20;;;3.60;84.20;;;;;;4975804;28;20108;-66
2022/02/07 03:43:31;;;;;;;1.42;0.50;;;3.50;84.50;;;;;;4976261;28;20042;-64
2022/02/07 03:45:58;;;;;;;1.35;0.40;;;3.50;84.70;;;;;;4975676;28;20446;-65
2022/02/07 03:48:23;;;;;;;0.85;0.40;;;3.50;85.00;;;;;;4975757;28;20034;-65
2022/02/07 03:50:49;;;;;;;0.30;0.20;;;3.50;85.00;;;;;;4975209;28;20073;-65
2022/02/07 03:53:15;;;;;;;1.25;0.50;;;3.50;85.10;;;;;;4974656;28;20122;-65
2022/02/07 03:55:41;;;;;;;1.38;0.25;;;3.50;85.30;;;;;;4976895;28;20043;-67
2022/02/07 03:58:07;;;;;;;1.27;0.30;;;3.50;85.30;;;;;;4976813;28;20085;-66
2022/02/07 04:00:34;;;;;;;2.20;0.40;;;3.50;85.30;;;;;;4974325;28;20027;-65
2022/02/07 04:03:04;;;;;;;1.65;0.73;;;3.50;85.10;;;;;;4976359;28;20569;-65
2022/02/07 04:07:59;;;;;;;0.73;0.32;;;3.50;85.20;;;;;;4973724;28;20039;-65
2022/02/07 04:10:26;;;;;;;1.73;0.47;;;3.50;85.20;;;;;;4988771;28;20035;-67
2022/02/07 04:12:58;;;;;;;1.50;0.40;;;3.50;85.10;;;;;;4977241;28;20512;-65
2022/02/07 04:15:24;;;;;;;1.15;0.40;;;3.50;85.20;;;;;;4973879;28;20057;-66
2022/02/07 04:17:56;;;;;;;1.10;0.35;;;3.50;84.90;;;;;;4974681;28;20402;-66
2022/02/07 04:20:22;;;;;;;1.80;0.70;;;3.50;84.80;;;;;;4972777;28;20057;-66
2022/02/07 04:22:48;;;;;;;3.92;0.50;;;3.50;84.80;;;;;;4975732;28;20038;-66
2022/02/07 04:25:13;;;;;;;0.45;0.28;;;3.60;84.70;;;;;;4974553;28;20041;-64
2022/02/07 04:27:39;;;;;;;2.08;0.50;;;3.60;84.60;;;;;;4976305;28;20038;-65
2022/02/07 04:30:06;;;;;;;1.38;0.35;;;3.60;84.20;;;;;;4974538;28;20030;-67
2022/02/07 04:32:32;;;;;;;3.05;0.50;;;3.60;83.90;;;;;;4974459;28;20528;-66
2022/02/07 04:34:58;;;;;;;2.72;0.60;;;3.60;83.70;;;;;;4973914;28;20030;-65
2022/02/07 04:37:24;;;;;;;2.75;0.70;;;3.70;83.50;;;;;;4973885;28;20678;-66
2022/02/07 04:39:52;;;;;;;1.88;0.63;;;3.70;83.30;;;;;;4974198;28;20049;-66
2022/02/07 04:42:19;;;;;;;2.40;0.73;;;3.70;83.10;;;;;;4976837;28;20557;-67
2022/02/07 04:55:46;;;;;;;0.85;0.43;;;3.80;82.50;;;;;;4979403;28;20066;-64
2022/02/07 05:16:08;;;;;;;1.08;0.55;;;3.30;84.00;;;;;;4976368;28;20466;-66
2022/02/07 05:18:34;;;;;;;1.75;0.35;;;3.20;83.70;;;;;;4977239;28;20042;-65
2022/02/07 05:20:59;;;;;;;0.75;0.30;;;3.10;83.50;;;;;;4976284;28;20037;-65
2022/02/07 05:23:25;;;;;;;0.88;0.30;;;3.10;82.90;;;;;;4983244;28;20113;-65
2022/02/07 05:25:51;;;;;;;1.38;0.47;;;3.10;83.10;;;;;;4983176;28;20022;-68
2022/02/07 05:28:17;;;;;;;1.02;0.25;;;3.10;83.00;;;;;;4981812;28;20157;-68
2022/02/07 05:30:43;;;;;;;0.52;0.20;;;3.00;83.00;;;;;;4979325;28;20093;-67
2022/02/07 05:33:08;;;;;;;3.53;0.32;;;3.00;83.00;;;;;;4980957;28;20039;-61
2022/02/07 05:35:34;;;;;;;1.30;0.50;;;3.10;82.90;;;;;;4983578;28;20035;-65
2022/02/07 05:38:00;;;;;;;0.93;0.20;;;3.00;82.70;;;;;;4983260;28;20070;-66
2022/02/07 05:40:35;;;;;;;0.63;0.20;;;3.00;82.80;;;;;;4986027;28;20089;-66
2022/02/07 05:43:01;;;;;;;3.38;0.30;;;3.00;82.60;;;;;;4984864;28;20034;-65
2022/02/07 05:45:27;;;;;;;1.23;0.28;;;3.00;82.50;;;;;;4983897;28;20394;-67
2022/02/07 05:47:54;;;;;;;1.55;0.30;;;3.00;82.50;;;;;;4986021;28;20133;-66
2022/02/07 05:50:20;;;;;;;1.67;0.70;;;3.00;82.30;;;;;;4983805;28;20728;-63
2022/02/07 05:52:45;;;;;;;1.20;0.60;;;3.00;82.10;;;;;;4985924;28;20042;-65
2022/02/07 05:55:11;;;;;;;1.63;0.50;;;3.00;82.00;;;;;;4983891;28;20041;-66
2022/02/07 05:57:37;;;;;;;0.90;0.40;;;3.10;82.00;;;;;;4985928;28;20034;-64
2022/02/07 06:00:07;;;;;;;5.60;0.50;;;3.10;81.70;;;;;;4984569;28;20077;-64
2022/02/07 06:02:32;;;;;;;0.98;0.65;;;3.10;81.20;;;;;;4983674;28;20110;-65
2022/02/07 06:04:58;;;;;;;5.82;2.05;;;3.10;81.20;;;;;;4984290;28;20145;-65
2022/02/07 06:07:23;;;;;;;2.15;0.60;;;3.10;81.20;;;;;;4983929;28;20117;-65
2022/02/07 06:09:49;;;;;;;2.97;0.60;;;3.10;81.30;;;;;;4984652;28;20397;-65
2022/02/07 06:12:15;;;;;;;1.15;0.30;;;3.10;81.30;;;;;;4986235;28;20126;-67
2022/02/07 06:14:41;;;;;;;1.67;0.30;;;3.10;81.00;;;;;;4983893;28;20387;-64
2022/02/07 06:17:06;;;;;;;1.58;0.30;;;3.10;80.90;;;;;;4984965;28;20045;-65
2022/02/07 06:19:32;;;;;;;4.85;0.80;;;3.10;81.00;;;;;;4985932;28;20382;-66
2022/02/07 06:21:58;;;;;;;3.10;0.90;;;3.10;81.10;;;;;;4985820;28;20483;-65
2022/02/07 06:24:24;;;;;;;2.47;1.20;;;3.10;81.10;;;;;;4985359;28;20046;-64
2022/02/07 06:26:49;;;;;;;3.47;1.08;;;3.10;81.00;;;;;;4989580;28;20337;-64
2022/02/07 06:29:15;;;;;;;5.97;1.20;;;3.10;80.70;;;;;;4985743;28;20042;-64
2022/02/07 06:31:40;;;;;;;4.65;1.02;;;3.10;80.00;;;;;;4984644;28;20038;-66
2022/02/07 06:34:08;;;;;;;5.60;1.17;;;3.10;79.90;;;;;;4983960;28;20033;-66
2022/02/07 06:36:34;;;;;;;2.15;0.73;;;3.10;79.80;;;;;;4983742;28;20034;-65
2022/02/07 06:38:59;;;;;;;2.72;0.98;;;3.00;79.70;;;;;;4984931;28;20276;-64
2022/02/07 06:41:25;;;;;;;5.65;1.42;;;3.00;79.60;;;;;;4982183;28;20066;-65
2022/02/07 06:43:51;;;;;;;3.78;0.98;;;3.00;79.70;;;;;;4984172;28;20551;-66
2022/02/07 06:46:16;;;;;;;5.03;1.13;;;3.00;79.70;;;;;;4983051;28;20244;-63
2022/02/07 06:48:42;;;;;;;13.32;5.15;;;3.00;79.60;;;;;;4979288;28;20027;-65
2022/02/07 06:51:08;;;;;;;11.13;2.50;;;3.00;79.50;;;;;;4980653;28;20081;-65
2022/02/07 06:53:34;;;;;;;5.28;2.28;;;3.00;79.50;;;;;;4980434;28;20072;-65
2022/02/07 06:56:02;;;;;;;8.38;2.03;;;3.00;79.60;;;;;;4978035;28;20038;-66
2022/02/07 06:58:28;;;;;;;7.97;3.75;;;3.00;79.70;;;;;;4977792;28;20385;-65
2022/02/07 07:00:54;;;;;;;6.13;2.22;;;3.00;79.80;;;;;;4982556;28;20037;-65
2022/02/07 07:03:21;;;;;;;8.73;2.25;;;3.00;79.60;;;;;;4984998;28;20037;-65
2022/02/07 07:05:49;;;;;;;7.50;2.17;;;3.00;79.50;;;;;;4980244;28;20464;-65
2022/02/07 07:08:15;;;;;;;4.43;1.50;;;3.00;79.70;;;;;;4980934;28;20038;-65
2022/02/07 07:10:41;;;;;;;6.45;1.30;;;3.00;79.70;;;;;;4981640;28;20042;-64
2022/02/07 07:13:13;;;;;;;4.55;1.40;;;3.00;79.90;;;;;;4984046;28;20030;-65
2022/02/07 07:15:59;;;;;;;5.65;1.35;;;3.00;79.80;;;;;;4980448;28;20101;-66
2022/02/07 07:18:24;;;;;;;7.63;1.30;;;3.00;79.90;;;;;;4981172;28;20046;-65
2022/02/07 07:20:50;;;;;;;4.68;1.02;;;3.00;79.80;;;;;;4981093;28;20042;-65
2022/02/07 07:23:16;;;;;;;5.25;1.35;;;3.00;79.90;;;;;;4980992;28;20555;-64
2022/02/07 07:25:44;;;;;;;4.68;1.30;;;3.00;79.90;;;;;;4982193;28;20042;-65
2022/02/07 07:28:13;;;;;;;6.55;1.65;;;3.00;80.00;;;;;;4984710;28;20040;-66
2022/02/07 07:30:44;;;;;;;4.93;1.88;;;3.00;79.90;;;;;;4982652;28;20092;-65
2022/02/07 07:33:15;;;;;;;10.68;1.50;;;3.00;79.80;;;;;;4981179;28;20062;-66
2022/02/07 07:35:41;;;;;;;4.90;1.83;;;3.10;79.90;;;;;;4983261;28;20038;-65
2022/02/07 07:38:06;;;;;;;4.25;1.80;;;3.10;79.70;;;;;;4984429;28;20068;-66
2022/02/07 07:40:32;;;;;;;7.00;2.35;;;3.10;79.70;;;;;;4983154;28;20042;-67
2022/02/07 07:42:57;;;;;;;6.30;2.10;;;3.10;79.80;;;;;;4985386;28;20041;-65
2022/02/07 07:45:28;;;;;;;6.95;2.13;;;3.10;79.90;;;;;;4983826;28;20038;-66
2022/02/07 07:48:00;;;;;;;2.90;1.00;;;3.10;79.90;;;;;;4983897;28;20038;-65
2022/02/07 07:50:32;;;;;;;4.47;1.15;;;3.10;79.70;;;;;;4979960;28;20125;-65
2022/02/07 07:53:11;;;;;;;4.95;1.10;;;3.20;79.80;;;;;;4981404;28;20577;-65
2022/02/07 08:03:39;;;;;;;4.07;1.00;;;3.20;79.90;;;;;;4980040;28;20170;-65
2022/02/07 08:11:25;;;;;;;3.20;1.35;;;3.30;79.50;;;;;;4957324;28;20038;-65
2022/02/07 08:13:53;;;;;;;3.10;1.40;;;3.30;79.50;;;;;;4981105;28;20042;-66
2022/02/07 08:16:18;;;;;;;6.13;1.52;;;3.30;79.30;;;;;;4980771;28;20034;-65
2022/02/07 08:18:44;;;;;;;6.10;1.45;;;3.30;78.90;;;;;;4981756;28;20809;-66
2022/02/07 08:21:10;;;;;;;5.45;1.20;;;3.30;78.70;;;;;;4980608;28;20048;-66
2022/02/07 08:23:36;;;;;;;6.47;1.33;;;3.30;78.30;;;;;;4978781;28;20137;-65
2022/02/07 08:26:03;;;;;;;4.18;0.98;;;3.30;78.40;;;;;;4980826;28;20034;-65
2022/02/07 08:28:29;;;;;;;5.70;0.85;;;3.30;78.10;;;;;;4979865;28;21047;-65
2022/02/07 08:30:56;;;;;;;8.10;0.70;;;3.30;78.30;;;;;;4977175;28;20071;-67
2022/02/07 08:33:21;;;;;;;5.28;0.93;;;3.30;78.10;;;;;;4976156;28;20042;-66
2022/02/07 08:35:47;;;;;;;8.35;1.48;;;3.40;78.00;;;;;;4977920;28;20389;-66
2022/02/07 08:38:13;;;;;;;4.47;1.38;;;3.40;77.60;;;;;;4976552;28;20520;-68
2022/02/07 08:40:38;;;;;;;4.55;0.90;;;3.40;77.70;;;;;;4975569;28;20026;-65
2022/02/07 08:43:04;;;;;;;3.13;1.00;;;3.40;77.70;;;;;;4978339;28;20030;-66
2022/02/07 08:45:30;;;;;;;4.28;0.90;;;3.50;77.90;;;;;;4978899;28;20030;-67
2022/02/07 08:47:56;;;;;;;6.50;1.13;;;3.50;77.70;;;;;;4978293;28;20038;-63
2022/02/07 08:50:27;;;;;;;4.05;0.90;;;3.50;78.00;;;;;;4978311;28;20057;-66
2022/02/07 08:52:55;;;;;;;4.68;1.15;;;3.50;77.80;;;;;;4976125;28;20089;-65
2022/02/07 08:58:17;;;;;;;5.32;1.15;;;3.60;77.60;;;;;;4976147;28;20038;-66
2022/02/07 09:05:45;;;;;;;5.95;1.27;;;3.60;77.50;;;;;;4976981;28;20042;-65
2022/02/07 09:10:43;;;;;;;5.85;1.05;;;3.60;77.20;;;;;;4977835;28;20117;-65
2022/02/07 09:13:09;;;;;;;6.43;1.00;;;3.60;77.00;;;;;;4979858;28;20046;-65
2022/02/07 09:18:07;;;;;;;6.25;1.10;;;3.70;77.20;;;;;;4977571;28;20037;-65
2022/02/07 09:20:37;;;;;;;6.15;1.23;;;3.70;77.10;;;;;;4977327;28;20034;-66
2022/02/07 09:23:05;;;;;;;5.13;1.15;;;3.70;76.60;;;;;;4979964;28;20042;-64
2022/02/07 09:25:31;;;;;;;4.88;1.08;;;3.80;76.60;;;;;;4976686;28;20055;-65
2022/02/07 09:27:57;;;;;;;4.72;1.13;;;3.80;76.60;;;;;;4978422;28;20130;-65
2022/02/07 09:30:23;;;;;;;3.92;1.00;;;3.80;76.60;;;;;;4976230;28;20566;-66
2022/02/07 09:32:49;;;;;;;9.55;1.40;;;3.80;76.70;;;;;;4975417;28;20126;-66
2022/02/07 09:35:16;;;;;;;7.22;1.25;;;3.90;76.60;;;;;;4976409;28;20034;-65
2022/02/07 09:37:42;;;;;;;8.15;1.13;;;3.90;76.70;;;;;;4975476;28;20034;-64
2022/02/07 09:40:09;;;;;;;5.75;0.90;;;3.90;76.70;;;;;;4977675;28;20085;-65
2022/02/07 09:42:40;;;;;;;5.47;0.82;;;3.90;76.40;;;;;;4976384;28;20034;-67
2022/02/07 09:45:13;;;;;;;6.38;1.10;;;3.90;76.50;;;;;;4977114;28;20045;-65
2022/02/07 09:47:39;;;;;;;8.35;1.00;;;4.00;76.60;;;;;;4976608;28;20061;-66
2022/02/07 09:50:06;;;;;;;4.13;1.20;;;4.00;76.40;;;;;;4978830;28;20031;-65
2022/02/07 09:52:35;;;;;;;6.07;0.98;;;4.10;76.20;;;;;;4976590;28;20039;-66
2022/02/07 09:55:02;;;;;;;4.35;0.80;;;4.10;76.20;;;;;;4979902;28;20038;-65
2022/02/07 09:57:27;;;;;;;5.47;1.02;;;4.10;76.20;;;;;;4976881;28;20039;-65
2022/02/07 09:59:54;;;;;;;4.22;0.90;;;4.10;76.40;;;;;;4979162;28;20362;-66
2022/02/07 10:03:04;;;;;;;4.43;0.80;;;4.10;76.30;;;;;;4978674;28;20062;-65
2022/02/07 10:05:24;;;;;;;3.42;0.80;;;4.10;76.40;;;;;;4975825;28;20342;-66
2022/02/07 10:10:31;;;;;;;3.78;0.85;;;4.20;76.30;;;;;;4980750;28;20045;-65
2022/02/07 10:15:55;;;;;;;4.35;0.85;;;4.20;76.20;;;;;;4968974;28;20051;-67
2022/02/07 10:48:40;;;;;;;3.40;1.45;;;4.40;76.40;;;;;;4981731;28;20038;-65
2022/02/07 10:51:19;;;;;;;7.85;1.92;;;4.40;76.40;;;;;;4986098;28;20089;-65
2022/02/07 10:53:46;;;;;;;10.18;2.08;;;4.40;76.40;;;;;;4982977;28;20045;-66
2022/02/07 10:56:13;;;;;;;6.85;1.90;;;4.40;76.50;;;;;;4982482;28;20031;-66
2022/02/07 10:58:40;;;;;;;5.28;2.05;;;4.40;76.40;;;;;;4983472;28;20038;-66
2022/02/07 11:03:47;;;;;;;5.65;2.08;;;4.40;76.60;;;;;;4979530;28;20470;-64
2022/02/07 11:06:16;;;;;;;6.55;2.30;;;4.40;76.90;;;;;;4979069;28;20034;-65
2022/02/07 11:08:49;;;;;;;6.30;1.83;;;4.40;76.60;;;;;;4981158;28;20038;-65
2022/02/07 11:19:27;;;;;;;9.80;2.20;;;4.40;77.10;;;;;;4982175;28;20065;-65
2022/02/07 11:22:14;;;;;;;6.32;2.25;;;4.50;77.30;;;;;;4980434;28;20023;-65
2022/02/07 11:27:40;;;;;;;8.50;2.78;;;4.50;76.50;;;;;;4973987;28;20041;-64
2022/02/07 11:30:14;;;;;;;3.88;1.30;;;4.50;75.50;;;;;;4979945;28;20413;-65
2022/02/07 11:32:41;;;;;;;6.70;2.08;;;4.60;75.10;;;;;;4980609;28;20459;-64
2022/02/07 11:35:08;;;;;;;8.18;1.30;;;4.50;74.70;;;;;;4981174;28;20046;-64
2022/02/07 11:37:35;;;;;;;4.68;1.60;;;4.60;74.80;;;;;;4994528;28;20066;-65
2022/02/07 11:40:00;;;;;;;7.93;1.60;;;4.60;74.80;;;;;;4978700;28;20039;-64
2022/02/07 11:42:28;;;;;;;7.35;1.75;;;4.60;74.90;;;;;;4979437;28;20090;-64
2022/02/07 11:44:54;;;;;;;7.80;1.52;;;4.60;74.10;;;;;;4976652;28;20030;-65
2022/02/07 11:47:25;;;;;;;4.93;1.30;;;4.70;73.20;;;;;;4981290;28;20057;-65
2022/02/07 11:49:57;;;;;;;6.95;1.73;;;4.60;73.00;;;;;;4977339;28;20049;-65
2022/02/07 11:52:40;;;;;;;7.32;1.60;;;4.70;73.00;;;;;;4979710;28;20046;-64
2022/02/07 11:55:18;;;;;;;6.40;1.60;;;4.60;73.40;;;;;;4980701;28;20305;-65
2022/02/07 11:57:53;;;;;;;6.20;1.65;;;4.70;73.80;;;;;;4979372;28;20400;-65
2022/02/07 12:00:23;;;;;;;7.28;1.58;;;4.70;73.40;;;;;;4979814;28;20459;-65
2022/02/07 12:02:51;;;;;;;4.35;1.45;;;4.70;72.90;;;;;;4982407;28;20530;-65
2022/02/07 12:05:21;;;;;;;6.55;1.40;;;4.70;73.20;;;;;;4981214;28;20042;-66
2022/02/07 12:08:13;;;;;;;6.43;1.60;;;4.70;73.30;;;;;;4981213;28;20398;-64
2022/02/07 12:11:05;;;;;;;8.38;2.20;;;4.70;73.50;;;;;;4980479;28;20532;-65
2022/02/07 12:13:44;;;;;;;8.77;1.83;;;4.80;73.70;;;;;;4983111;28;20056;-65
2022/02/07 12:16:18;;;;;;;7.28;1.40;;;4.80;71.90;;;;;;4980938;28;20042;-66
2022/02/07 12:19:10;;;;;;;8.70;1.65;;;4.90;72.70;;;;;;4981614;28;20073;-64
2022/02/07 12:21:39;;;;;;;6.22;1.90;;;4.90;73.00;;;;;;4977374;28;20096;-65
2022/02/07 12:24:05;;;;;;;6.18;1.60;;;4.90;73.60;;;;;;4981030;28;20063;-66
2022/02/07 12:26:41;;;;;;;2.83;1.33;;;4.90;72.70;;;;;;4981249;28;20042;-67
2022/02/07 12:29:19;;;;;;;4.30;1.40;;;4.90;72.50;;;;;;4981403;28;20034;-66
2022/02/07 12:31:45;;;;;;;5.38;1.60;;;5.00;72.70;;;;;;4981792;28;20595;-65
2022/02/07 12:34:14;;;;;;;10.13;1.67;;;5.00;72.70;;;;;;4980996;28;20548;-66
2022/02/07 12:36:41;;;;;;;4.50;1.52;;;5.00;72.50;;;;;;4982395;28;20046;-65
2022/02/07 12:39:10;;;;;;;7.32;1.48;;;5.00;72.90;;;;;;4982618;28;20046;-66
2022/02/07 12:41:36;;;;;;;11.13;2.50;;;5.10;73.10;;;;;;4979827;28;20042;-66
2022/02/07 12:44:04;;;;;;;8.63;2.38;;;5.10;72.60;;;;;;4980186;28;20054;-65
2022/02/07 12:46:31;;;;;;;9.05;2.53;;;5.10;72.70;;;;;;4978230;28;20437;-66
2022/02/07 12:49:00;;;;;;;10.23;2.08;;;5.10;72.90;;;;;;4979663;28;20158;-65
2022/02/07 12:51:37;;;;;;;9.38;2.47;;;5.10;72.70;;;;;;4979909;28;20050;-66
2022/02/07 12:54:03;;;;;;;7.55;2.85;;;5.10;72.20;;;;;;4995281;28;20121;-65
2022/02/07 12:56:30;;;;;;;7.80;2.40;;;5.00;71.70;;;;;;4981236;28;20604;-65
2022/02/07 12:58:55;;;;;;;5.95;1.70;;;5.00;71.60;;;;;;4980117;28;20046;-66
2022/02/07 13:01:28;;;;;;;9.27;2.03;;;5.00;71.60;;;;;;4978114;28;20089;-66
2022/02/07 13:03:58;;;;;;;3.85;1.60;;;5.00;71.70;;;;;;4980729;28;20444;-66
2022/02/07 13:06:37;;;;;;;8.07;1.45;;;5.00;71.80;;;;;;4980059;28;20424;-65
2022/02/07 13:09:12;;;;;;;6.47;2.15;;;5.00;71.90;;;;;;4979771;28;20042;-65
2022/02/07 13:11:44;;;;;;;5.07;1.35;;;5.00;71.60;;;;;;4979376;28;20133;-67
2022/02/07 13:14:11;;;;;;;4.05;1.48;;;5.00;71.80;;;;;;4981582;28;20543;-65
2022/02/07 13:16:37;;;;;;;7.10;1.52;;;4.90;72.00;;;;;;4980071;28;20050;-65
2022/02/07 13:19:17;;;;;;;3.40;1.25;;;5.00;72.00;;;;;;4979995;28;20053;-66
2022/02/07 13:21:46;;;;;;;6.43;2.17;;;4.90;71.10;;;;;;4980909;28;20042;-66
2022/02/07 13:24:15;;;;;;;5.40;1.70;;;5.00;71.50;;;;;;4978807;28;20033;-66
2022/02/07 13:26:52;;;;;;;5.32;1.60;;;4.90;71.70;;;;;;4979515;28;20046;-65
2022/02/07 13:29:24;;;;;;;5.72;2.22;;;5.00;71.80;;;;;;4982555;28;20408;-66
2022/02/07 13:32:03;;;;;;;6.30;2.10;;;5.00;71.70;;;;;;4981924;28;20050;-66
2022/02/07 13:34:31;;;;;;;7.95;1.58;;;5.00;71.50;;;;;;4979106;28;20113;-66
2022/02/07 13:37:14;;;;;;;8.02;1.63;;;5.00;70.80;;;;;;4981674;28;20298;-65
2022/02/07 13:40:12;;;;;;;5.40;1.65;;;5.00;70.80;;;;;;4982263;28;20037;-65
2022/02/07 13:42:40;;;;;;;8.77;2.30;;;5.10;70.30;;;;;;4980772;28;20088;-66
2022/02/07 13:45:17;;;;;;;7.47;2.05;;;5.10;70.90;;;;;;4985681;28;20493;-64
2022/02/07 13:47:45;;;;;;;5.20;1.65;;;5.00;70.50;;;;;;4984671;28;20030;-66
2022/02/07 13:50:14;;;;;;;4.13;1.40;;;5.10;70.80;;;;;;4984616;28;20045;-66
2022/02/07 13:52:45;;;;;;;6.13;2.15;;;5.10;70.80;;;;;;4984262;28;20505;-67
2022/02/07 13:55:12;;;;;;;8.73;1.52;;;5.10;70.70;;;;;;4983598;28;20034;-66
2022/02/07 13:58:25;;;;;;;4.43;1.58;;;5.10;70.50;;;;;;4983646;28;20632;-65
2022/02/07 14:00:51;;;;;;;3.88;1.40;;;5.10;69.40;;;;;;4980623;28;20405;-65
2022/02/07 14:03:27;;;;;;;2.53;1.00;;;5.10;70.40;;;;;;4984847;28;20031;-66
2022/02/07 14:06:06;;;;;;;5.13;1.17;;;5.10;70.40;;;;;;4983088;28;20026;-66
2022/02/07 14:08:34;;;;;;;4.10;1.25;;;5.00;70.30;;;;;;4983826;28;20050;-66
2022/02/07 14:11:01;;;;;;;6.30;1.30;;;5.10;68.70;;;;;;4982980;28;20053;-65
2022/02/07 14:13:26;;;;;;;8.30;1.40;;;5.10;68.70;;;;;;4983577;28;20516;-64
2022/02/07 14:15:52;;;;;;;9.98;1.90;;;5.10;69.00;;;;;;4981302;28;20038;-65
2022/02/07 14:18:20;;;;;;;4.05;1.00;;;5.10;68.80;;;;;;4983670;28;20030;-65
2022/02/07 14:20:47;;;;;;;4.20;1.10;;;5.20;67.70;;;;;;4982208;28;20042;-65
2022/02/07 14:23:15;;;;;;;4.97;1.20;;;5.20;68.70;;;;;;4983199;28;20026;-65
2022/02/07 14:25:44;;;;;;;3.33;0.95;;;5.20;68.20;;;;;;4984089;28;20536;-66
2022/02/07 14:28:11;;;;;;;5.80;0.98;;;5.30;68.10;;;;;;4983162;28;20493;-65
2022/02/07 14:30:37;;;;;;;6.13;0.93;;;5.30;67.70;;;;;;4982085;28;20046;-65
2022/02/07 14:33:04;;;;;;;5.00;1.42;;;5.30;68.60;;;;;;4983531;28;20099;-67
2022/02/07 14:35:32;;;;;;;5.90;1.08;;;5.30;68.30;;;;;;4982856;28;20035;-65
2022/02/07 14:37:58;;;;;;;5.90;1.15;;;5.30;68.20;;;;;;4982021;28;20034;-66
2022/02/07 14:40:24;;;;;;;6.60;1.30;;;5.30;68.40;;;;;;4982340;28;20026;-65
2022/02/07 14:42:49;;;;;;;8.75;1.40;;;5.30;67.40;;;;;;4978846;28;20393;-65
2022/02/07 14:45:17;;;;;;;9.85;1.88;;;5.30;67.50;;;;;;4980256;28;20030;-65
2022/02/07 14:50:13;;;;;;;11.70;4.25;;;5.30;67.50;;;;;;4982267;28;20076;-62
2022/02/07 14:52:39;;;;;;;7.40;3.50;;;5.20;67.50;;;;;;4980113;28;20057;-64
2022/02/07 14:55:06;;;;;;;7.10;1.50;;;5.20;67.00;;;;;;4981589;28;20031;-64
2022/02/07 14:57:31;;;;;;;6.90;1.70;;;5.20;67.30;;;;;;4981025;28;20535;-65
2022/02/07 14:59:57;;;;;;;5.28;1.40;;;5.20;67.90;;;;;;4978535;28;20043;-65
2022/02/07 15:02:23;;;;;;;7.35;2.40;;;5.30;69.30;;;;;;4980958;28;20414;-65
2022/02/07 15:04:54;;;;;;;8.15;1.67;;;5.30;68.00;;;;;;4980755;28;20041;-65
2022/02/07 15:07:21;;;;;;;2.80;1.20;;;5.30;68.30;;;;;;4981147;28;20375;-66
2022/02/07 15:09:47;;;;;;;6.20;1.50;;;5.30;68.20;;;;;;4980671;28;20090;-65
2022/02/07 15:12:13;;;;;;;4.07;1.23;;;5.40;68.50;;;;;;4981938;28;20765;-65
2022/02/07 15:14:38;;;;;;;4.85;1.20;;;5.30;68.50;;;;;;4979550;28;20022;-65
2022/02/07 15:17:04;;;;;;;5.05;1.42;;;5.40;68.40;;;;;;4981325;28;20046;-65
2022/02/07 15:19:30;;;;;;;8.18;1.92;;;5.40;67.70;;;;;;4979694;28;20122;-66
2022/02/07 15:21:56;;;;;;;5.20;1.55;;;5.40;68.00;;;;;;4980838;28;20042;-66
2022/02/07 15:24:24;;;;;;;5.45;1.60;;;5.50;67.80;;;;;;4980219;28;20035;-65
2022/02/07 15:26:50;;;;;;;5.68;2.08;;;5.50;67.80;;;;;;4980599;28;20401;-65
2022/02/07 15:29:17;;;;;;;6.10;1.20;;;5.50;67.90;;;;;;4979905;28;20038;-65
2022/02/07 15:31:47;;;;;;;5.70;1.63;;;5.60;67.80;;;;;;4980221;28;20122;-65
2022/02/07 15:34:13;;;;;;;5.65;1.73;;;5.60;67.70;;;;;;4982341;28;20031;-64
2022/02/07 15:36:38;;;;;;;8.68;1.48;;;5.60;67.40;;;;;;4979537;28;20062;-66
2022/02/07 15:39:08;;;;;;;6.85;1.70;;;5.60;67.00;;;;;;4979584;28;20031;-67
2022/02/07 15:41:38;;;;;;;5.05;1.60;;;5.60;66.80;;;;;;4979588;28;20030;-66
2022/02/07 15:44:04;;;;;;;8.00;1.40;;;5.60;67.20;;;;;;4978834;28;20042;-66
2022/02/07 15:46:30;;;;;;;11.10;1.35;;;5.60;67.60;;;;;;4979398;28;20031;-65
2022/02/07 15:48:56;;;;;;;8.95;2.40;;;5.50;67.50;;;;;;4979200;28;20045;-66
2022/02/07 15:51:22;;;;;;;6.13;1.50;;;5.50;67.70;;;;;;4976922;28;20057;-65
2022/02/07 15:53:48;;;;;;;6.15;1.40;;;5.50;67.70;;;;;;4975661;28;20690;-66
2022/02/07 15:56:14;;;;;;;7.10;1.80;;;5.50;68.00;;;;;;4976207;28;20053;-66
2022/02/07 15:58:40;;;;;;;4.22;1.50;;;5.40;68.10;;;;;;4976081;28;20585;-65
2022/02/07 16:01:06;;;;;;;10.30;5.35;;;5.40;68.30;;;;;;4975353;28;20066;-65
2022/02/07 16:03:32;;;;;;;5.32;1.80;;;5.40;68.40;;;;;;4975200;28;20108;-65
2022/02/07 16:05:57;;;;;;;7.18;1.98;;;5.40;68.20;;;;;;4975521;28;20164;-65